Nieuwerkerken, Belgium
Current Conditions -  °F | °C
As of 4:14 AM on Friday 28 Nov 2014 (Local Time) from EBDT Reporting Station
Clear Clear  
Wind Chill: 40°   Ceiling: Unl
Heat Index: 43°   Visibility: 2.6mi
Dew Point: 43°   Wind: 5mph
Humidity: 100%   Direction: 80°E
Pressure: 29.68"   Gusts: NA
Location:  50.86°N, 5.19°E
Report Text: EBDT 280314Z AUTO 08004KT 4200 NCD 06/06 Q1005 GRN
Loading
Personal Weather Stations






























Interactive Weather Map New forecast layout! Learn more

10-Day Weather Forecast

Advertisements
Track Severe Weather on mobile